sensor_id;sensor_type;location;lat;lon;timestamp;P1;durP1;ratioP1;P2;durP2;ratioP2
66702;SDS011;60933;46.398;-63.798;2022-07-22T00:01:39;6.20;;;5.07;;
66702;SDS011;60933;46.398;-63.798;2022-07-22T00:04:05;5.30;;;4.65;;
66702;SDS011;60933;46.398;-63.798;2022-07-22T00:06:31;6.25;;;5.03;;
66702;SDS011;60933;46.398;-63.798;2022-07-22T00:08:58;5.90;;;4.95;;
66702;SDS011;60933;46.398;-63.798;2022-07-22T00:11:24;7.68;;;4.55;;
66702;SDS011;60933;46.398;-63.798;2022-07-22T00:13:50;5.10;;;4.45;;
66702;SDS011;60933;46.398;-63.798;2022-07-22T00:16:16;7.95;;;4.93;;
66702;SDS011;60933;46.398;-63.798;2022-07-22T00:18:42;5.35;;;4.22;;
66702;SDS011;60933;46.398;-63.798;2022-07-22T00:21:08;5.85;;;4.30;;
66702;SDS011;60933;46.398;-63.798;2022-07-22T00:23:34;6.60;;;4.70;;
66702;SDS011;60933;46.398;-63.798;2022-07-22T00:26:01;5.28;;;4.50;;
66702;SDS011;60933;46.398;-63.798;2022-07-22T00:28:27;4.88;;;4.22;;
66702;SDS011;60933;46.398;-63.798;2022-07-22T00:30:53;5.63;;;4.60;;
66702;SDS011;60933;46.398;-63.798;2022-07-22T00:33:19;6.97;;;4.47;;
66702;SDS011;60933;46.398;-63.798;2022-07-22T00:35:45;6.47;;;4.55;;
66702;SDS011;60933;46.398;-63.798;2022-07-22T00:38:11;6.53;;;4.45;;
66702;SDS011;60933;46.398;-63.798;2022-07-22T00:40:37;6.38;;;4.63;;
66702;SDS011;60933;46.398;-63.798;2022-07-22T00:43:03;6.70;;;4.60;;
66702;SDS011;60933;46.398;-63.798;2022-07-22T00:45:29;6.68;;;5.45;;
66702;SDS011;60933;46.398;-63.798;2022-07-22T00:47:55;6.13;;;4.88;;
66702;SDS011;60933;46.398;-63.798;2022-07-22T00:50:21;6.57;;;4.93;;
66702;SDS011;60933;46.398;-63.798;2022-07-22T00:52:48;7.68;;;4.80;;
66702;SDS011;60933;46.398;-63.798;2022-07-22T00:55:15;6.68;;;5.15;;
66702;SDS011;60933;46.398;-63.798;2022-07-22T00:57:41;7.97;;;5.18;;
66702;SDS011;60933;46.398;-63.798;2022-07-22T01:00:09;7.53;;;5.80;;
66702;SDS011;60933;46.398;-63.798;2022-07-22T01:02:38;6.10;;;4.95;;
66702;SDS011;60933;46.398;-63.798;2022-07-22T01:05:05;7.38;;;4.82;;
66702;SDS011;60933;46.398;-63.798;2022-07-22T01:07:31;5.88;;;5.00;;
66702;SDS011;60933;46.398;-63.798;2022-07-22T01:09:57;8.65;;;5.70;;
66702;SDS011;60933;46.398;-63.798;2022-07-22T01:12:24;6.22;;;5.20;;
66702;SDS011;60933;46.398;-63.798;2022-07-22T01:14:50;6.90;;;5.30;;
66702;SDS011;60933;46.398;-63.798;2022-07-22T01:17:16;8.85;;;5.60;;
66702;SDS011;60933;46.398;-63.798;2022-07-22T01:19:42;7.65;;;6.05;;
66702;SDS011;60933;46.398;-63.798;2022-07-22T01:22:08;7.78;;;6.35;;
66702;SDS011;60933;46.398;-63.798;2022-07-22T01:24:35;7.55;;;6.18;;
66702;SDS011;60933;46.398;-63.798;2022-07-22T01:27:01;9.57;;;6.72;;
66702;SDS011;60933;46.398;-63.798;2022-07-22T01:29:28;6.75;;;5.97;;
66702;SDS011;60933;46.398;-63.798;2022-07-22T01:31:54;8.30;;;6.72;;
66702;SDS011;60933;46.398;-63.798;2022-07-22T01:34:21;8.00;;;5.97;;
66702;SDS011;60933;46.398;-63.798;2022-07-22T01:36:48;7.22;;;6.00;;
66702;SDS011;60933;46.398;-63.798;2022-07-22T01:39:14;8.13;;;5.38;;
66702;SDS011;60933;46.398;-63.798;2022-07-22T01:41:40;6.43;;;5.78;;
66702;SDS011;60933;46.398;-63.798;2022-07-22T01:44:07;6.68;;;5.97;;
66702;SDS011;60933;46.398;-63.798;2022-07-22T01:46:33;9.05;;;7.22;;
66702;SDS011;60933;46.398;-63.798;2022-07-22T01:48:59;9.05;;;6.40;;
66702;SDS011;60933;46.398;-63.798;2022-07-22T01:51:25;9.18;;;6.28;;
66702;SDS011;60933;46.398;-63.798;2022-07-22T01:53:51;7.80;;;6.22;;
66702;SDS011;60933;46.398;-63.798;2022-07-22T01:56:18;9.80;;;6.35;;
66702;SDS011;60933;46.398;-63.798;2022-07-22T01:58:44;5.95;;;5.28;;
66702;SDS011;60933;46.398;-63.798;2022-07-22T02:01:10;7.03;;;5.95;;
66702;SDS011;60933;46.398;-63.798;2022-07-22T02:03:36;8.15;;;6.05;;
66702;SDS011;60933;46.398;-63.798;2022-07-22T02:06:03;7.70;;;6.03;;
66702;SDS011;60933;46.398;-63.798;2022-07-22T02:08:29;7.95;;;7.20;;
66702;SDS011;60933;46.398;-63.798;2022-07-22T02:10:55;6.63;;;5.43;;
66702;SDS011;60933;46.398;-63.798;2022-07-22T02:13:21;8.30;;;6.38;;
66702;SDS011;60933;46.398;-63.798;2022-07-22T02:15:47;7.97;;;5.35;;
66702;SDS011;60933;46.398;-63.798;2022-07-22T02:18:14;7.20;;;6.10;;
66702;SDS011;60933;46.398;-63.798;2022-07-22T02:20:42;7.38;;;5.57;;
66702;SDS011;60933;46.398;-63.798;2022-07-22T02:23:09;6.72;;;5.43;;
66702;SDS011;60933;46.398;-63.798;2022-07-22T02:25:36;7.15;;;5.90;;
66702;SDS011;60933;46.398;-63.798;2022-07-22T02:28:04;7.05;;;5.65;;
66702;SDS011;60933;46.398;-63.798;2022-07-22T02:30:30;9.70;;;6.10;;
66702;SDS011;60933;46.398;-63.798;2022-07-22T02:32:57;5.65;;;4.90;;
66702;SDS011;60933;46.398;-63.798;2022-07-22T02:35:24;8.07;;;6.13;;
66702;SDS011;60933;46.398;-63.798;2022-07-22T02:37:50;5.55;;;4.93;;
66702;SDS011;60933;46.398;-63.798;2022-07-22T02:40:16;8.38;;;7.18;;
66702;SDS011;60933;46.398;-63.798;2022-07-22T02:42:43;7.75;;;5.40;;
66702;SDS011;60933;46.398;-63.798;2022-07-22T02:45:09;5.13;;;4.28;;
66702;SDS011;60933;46.398;-63.798;2022-07-22T02:47:35;6.97;;;5.60;;
66702;SDS011;60933;46.398;-63.798;2022-07-22T02:50:11;7.10;;;5.53;;
66702;SDS011;60933;46.398;-63.798;2022-07-22T02:52:37;5.43;;;4.68;;
66702;SDS011;60933;46.398;-63.798;2022-07-22T02:55:03;5.65;;;4.40;;
66702;SDS011;60933;46.398;-63.798;2022-07-22T02:57:31;6.72;;;4.63;;
66702;SDS011;60933;46.398;-63.798;2022-07-22T02:59:57;6.18;;;5.40;;
66702;SDS011;60933;46.398;-63.798;2022-07-22T03:02:23;6.63;;;4.90;;
66702;SDS011;60933;46.398;-63.798;2022-07-22T03:04:49;4.55;;;4.13;;
66702;SDS011;60933;46.398;-63.798;2022-07-22T03:07:15;6.60;;;5.03;;
66702;SDS011;60933;46.398;-63.798;2022-07-22T03:09:42;5.25;;;4.25;;
66702;SDS011;60933;46.398;-63.798;2022-07-22T03:12:10;5.32;;;4.82;;
66702;SDS011;60933;46.398;-63.798;2022-07-22T03:14:36;6.28;;;5.40;;
66702;SDS011;60933;46.398;-63.798;2022-07-22T03:17:02;5.55;;;4.28;;
66702;SDS011;60933;46.398;-63.798;2022-07-22T03:19:29;5.03;;;4.13;;
66702;SDS011;60933;46.398;-63.798;2022-07-22T03:21:55;5.40;;;4.72;;
66702;SDS011;60933;46.398;-63.798;2022-07-22T03:24:21;6.47;;;5.22;;
66702;SDS011;60933;46.398;-63.798;2022-07-22T03:26:47;5.45;;;4.80;;
66702;SDS011;60933;46.398;-63.798;2022-07-22T03:29:13;6.13;;;5.13;;
66702;SDS011;60933;46.398;-63.798;2022-07-22T03:31:39;4.85;;;4.13;;
66702;SDS011;60933;46.398;-63.798;2022-07-22T03:34:05;6.85;;;4.65;;
66702;SDS011;60933;46.398;-63.798;2022-07-22T03:36:31;6.53;;;4.45;;
66702;SDS011;60933;46.398;-63.798;2022-07-22T03:38:57;6.03;;;4.70;;
66702;SDS011;60933;46.398;-63.798;2022-07-22T03:41:23;4.72;;;3.92;;
66702;SDS011;60933;46.398;-63.798;2022-07-22T03:43:49;5.47;;;4.30;;
66702;SDS011;60933;46.398;-63.798;2022-07-22T03:46:15;5.05;;;4.18;;
66702;SDS011;60933;46.398;-63.798;2022-07-22T03:48:42;5.18;;;3.90;;
66702;SDS011;60933;46.398;-63.798;2022-07-22T03:51:08;4.90;;;4.40;;
66702;SDS011;60933;46.398;-63.798;2022-07-22T03:53:34;4.90;;;3.67;;
66702;SDS011;60933;46.398;-63.798;2022-07-22T03:56:00;5.82;;;4.53;;
66702;SDS011;60933;46.398;-63.798;2022-07-22T03:58:26;5.20;;;4.57;;
66702;SDS011;60933;46.398;-63.798;2022-07-22T04:00:53;5.75;;;4.85;;
66702;SDS011;60933;46.398;-63.798;2022-07-22T04:03:19;6.68;;;4.57;;
66702;SDS011;60933;46.398;-63.798;2022-07-22T04:05:46;6.13;;;4.57;;
66702;SDS011;60933;46.398;-63.798;2022-07-22T04:08:12;5.05;;;4.18;;
66702;SDS011;60933;46.398;-63.798;2022-07-22T04:10:39;6.13;;;4.20;;
66702;SDS011;60933;46.398;-63.798;2022-07-22T04:13:05;5.47;;;4.40;;
66702;SDS011;60933;46.398;-63.798;2022-07-22T04:15:31;4.93;;;4.05;;
66702;SDS011;60933;46.398;-63.798;2022-07-22T04:17:57;6.80;;;4.70;;
66702;SDS011;60933;46.398;-63.798;2022-07-22T04:20:23;7.30;;;4.50;;
66702;SDS011;60933;46.398;-63.798;2022-07-22T04:22:49;6.47;;;4.93;;
66702;SDS011;60933;46.398;-63.798;2022-07-22T04:25:15;5.35;;;4.30;;
66702;SDS011;60933;46.398;-63.798;2022-07-22T04:27:41;4.90;;;4.22;;
66702;SDS011;60933;46.398;-63.798;2022-07-22T04:30:07;6.65;;;4.70;;
66702;SDS011;60933;46.398;-63.798;2022-07-22T04:32:34;6.57;;;4.80;;
66702;SDS011;60933;46.398;-63.798;2022-07-22T04:35:00;6.43;;;4.82;;
66702;SDS011;60933;46.398;-63.798;2022-07-22T04:37:26;7.18;;;5.85;;
66702;SDS011;60933;46.398;-63.798;2022-07-22T04:39:52;7.95;;;5.00;;
66702;SDS011;60933;46.398;-63.798;2022-07-22T04:42:18;6.90;;;5.80;;
66702;SDS011;60933;46.398;-63.798;2022-07-22T04:44:44;7.72;;;5.93;;
66702;SDS011;60933;46.398;-63.798;2022-07-22T04:47:11;7.90;;;6.25;;
66702;SDS011;60933;46.398;-63.798;2022-07-22T04:49:37;8.27;;;6.97;;
66702;SDS011;60933;46.398;-63.798;2022-07-22T04:52:03;7.85;;;6.72;;
66702;SDS011;60933;46.398;-63.798;2022-07-22T04:54:29;8.23;;;6.50;;
66702;SDS011;60933;46.398;-63.798;2022-07-22T04:56:55;7.90;;;6.13;;
66702;SDS011;60933;46.398;-63.798;2022-07-22T04:59:21;8.80;;;7.20;;
66702;SDS011;60933;46.398;-63.798;2022-07-22T05:01:48;7.85;;;6.93;;
66702;SDS011;60933;46.398;-63.798;2022-07-22T05:04:14;11.10;;;7.65;;
66702;SDS011;60933;46.398;-63.798;2022-07-22T05:06:40;10.65;;;7.50;;
66702;SDS011;60933;46.398;-63.798;2022-07-22T05:09:07;9.20;;;7.88;;
66702;SDS011;60933;46.398;-63.798;2022-07-22T05:11:33;8.05;;;6.72;;
66702;SDS011;60933;46.398;-63.798;2022-07-22T05:13:59;8.43;;;6.95;;
66702;SDS011;60933;46.398;-63.798;2022-07-22T05:16:25;9.68;;;7.63;;
66702;SDS011;60933;46.398;-63.798;2022-07-22T05:18:51;9.02;;;7.38;;
66702;SDS011;60933;46.398;-63.798;2022-07-22T05:21:18;9.68;;;7.78;;
66702;SDS011;60933;46.398;-63.798;2022-07-22T05:23:44;8.20;;;6.40;;
66702;SDS011;60933;46.398;-63.798;2022-07-22T05:26:10;9.32;;;7.35;;
66702;SDS011;60933;46.398;-63.798;2022-07-22T05:28:36;10.02;;;7.18;;
66702;SDS011;60933;46.398;-63.798;2022-07-22T05:31:02;7.97;;;7.05;;
66702;SDS011;60933;46.398;-63.798;2022-07-22T05:33:28;9.30;;;7.57;;
66702;SDS011;60933;46.398;-63.798;2022-07-22T05:35:54;8.15;;;7.07;;
66702;SDS011;60933;46.398;-63.798;2022-07-22T05:38:20;7.63;;;6.13;;
66702;SDS011;60933;46.398;-63.798;2022-07-22T05:40:46;9.60;;;7.13;;
66702;SDS011;60933;46.398;-63.798;2022-07-22T05:43:12;9.63;;;7.15;;
66702;SDS011;60933;46.398;-63.798;2022-07-22T05:45:38;8.40;;;6.13;;
66702;SDS011;60933;46.398;-63.798;2022-07-22T05:48:04;7.32;;;6.38;;
66702;SDS011;60933;46.398;-63.798;2022-07-22T05:50:31;8.57;;;6.65;;
66702;SDS011;60933;46.398;-63.798;2022-07-22T05:52:57;7.90;;;6.07;;
66702;SDS011;60933;46.398;-63.798;2022-07-22T05:55:23;8.10;;;6.95;;
66702;SDS011;60933;46.398;-63.798;2022-07-22T05:57:49;7.85;;;5.97;;
66702;SDS011;60933;46.398;-63.798;2022-07-22T06:00:15;10.13;;;6.85;;
66702;SDS011;60933;46.398;-63.798;2022-07-22T06:02:45;8.82;;;6.70;;
66702;SDS011;60933;46.398;-63.798;2022-07-22T06:05:11;8.27;;;6.32;;
66702;SDS011;60933;46.398;-63.798;2022-07-22T06:07:37;8.38;;;6.75;;
66702;SDS011;60933;46.398;-63.798;2022-07-22T06:10:03;8.95;;;6.68;;
66702;SDS011;60933;46.398;-63.798;2022-07-22T06:12:30;9.70;;;6.65;;
66702;SDS011;60933;46.398;-63.798;2022-07-22T06:14:56;7.15;;;5.93;;
66702;SDS011;60933;46.398;-63.798;2022-07-22T06:17:22;8.48;;;6.78;;
66702;SDS011;60933;46.398;-63.798;2022-07-22T06:19:48;8.40;;;6.30;;
66702;SDS011;60933;46.398;-63.798;2022-07-22T06:22:14;7.68;;;6.25;;
66702;SDS011;60933;46.398;-63.798;2022-07-22T06:24:42;8.10;;;6.15;;
66702;SDS011;60933;46.398;-63.798;2022-07-22T06:27:09;6.72;;;5.57;;
66702;SDS011;60933;46.398;-63.798;2022-07-22T06:29:36;6.53;;;5.25;;
66702;SDS011;60933;46.398;-63.798;2022-07-22T06:32:02;8.77;;;5.97;;
66702;SDS011;60933;46.398;-63.798;2022-07-22T06:34:28;7.80;;;6.20;;
66702;SDS011;60933;46.398;-63.798;2022-07-22T06:36:54;10.18;;;6.10;;
66702;SDS011;60933;46.398;-63.798;2022-07-22T06:39:20;7.68;;;5.82;;
66702;SDS011;60933;46.398;-63.798;2022-07-22T06:41:46;9.48;;;6.63;;
66702;SDS011;60933;46.398;-63.798;2022-07-22T06:44:12;10.85;;;6.97;;
66702;SDS011;60933;46.398;-63.798;2022-07-22T06:46:38;10.95;;;6.45;;
66702;SDS011;60933;46.398;-63.798;2022-07-22T06:49:05;8.57;;;6.38;;
66702;SDS011;60933;46.398;-63.798;2022-07-22T06:51:32;9.00;;;6.85;;
66702;SDS011;60933;46.398;-63.798;2022-07-22T06:53:58;8.07;;;6.93;;
66702;SDS011;60933;46.398;-63.798;2022-07-22T06:56:25;7.70;;;5.85;;
66702;SDS011;60933;46.398;-63.798;2022-07-22T06:58:51;10.00;;;6.90;;
66702;SDS011;60933;46.398;-63.798;2022-07-22T07:01:17;7.75;;;6.05;;
66702;SDS011;60933;46.398;-63.798;2022-07-22T07:03:43;8.65;;;7.03;;
66702;SDS011;60933;46.398;-63.798;2022-07-22T07:06:10;10.45;;;7.15;;
66702;SDS011;60933;46.398;-63.798;2022-07-22T07:08:40;8.27;;;6.43;;
66702;SDS011;60933;46.398;-63.798;2022-07-22T07:11:06;7.30;;;6.15;;
66702;SDS011;60933;46.398;-63.798;2022-07-22T07:13:32;8.38;;;6.10;;
66702;SDS011;60933;46.398;-63.798;2022-07-22T07:15:58;8.38;;;6.93;;
66702;SDS011;60933;46.398;-63.798;2022-07-22T07:18:24;8.70;;;6.25;;
66702;SDS011;60933;46.398;-63.798;2022-07-22T07:20:50;9.00;;;5.93;;
66702;SDS011;60933;46.398;-63.798;2022-07-22T07:23:16;9.05;;;6.72;;
66702;SDS011;60933;46.398;-63.798;2022-07-22T07:25:42;9.68;;;7.47;;
66702;SDS011;60933;46.398;-63.798;2022-07-22T07:28:09;8.77;;;6.15;;
66702;SDS011;60933;46.398;-63.798;2022-07-22T07:30:35;6.63;;;5.53;;
66702;SDS011;60933;46.398;-63.798;2022-07-22T07:33:01;8.40;;;6.50;;
66702;SDS011;60933;46.398;-63.798;2022-07-22T07:35:28;7.72;;;5.78;;
66702;SDS011;60933;46.398;-63.798;2022-07-22T07:37:54;8.63;;;6.40;;
66702;SDS011;60933;46.398;-63.798;2022-07-22T07:40:20;8.60;;;5.93;;
66702;SDS011;60933;46.398;-63.798;2022-07-22T07:42:46;8.90;;;5.90;;
66702;SDS011;60933;46.398;-63.798;2022-07-22T07:45:12;8.43;;;6.13;;
66702;SDS011;60933;46.398;-63.798;2022-07-22T07:47:39;9.48;;;6.45;;
66702;SDS011;60933;46.398;-63.798;2022-07-22T07:50:05;7.60;;;5.57;;
66702;SDS011;60933;46.398;-63.798;2022-07-22T07:52:39;7.05;;;5.40;;
66702;SDS011;60933;46.398;-63.798;2022-07-22T07:55:10;6.90;;;5.28;;
66702;SDS011;60933;46.398;-63.798;2022-07-22T07:57:37;10.05;;;6.18;;
66702;SDS011;60933;46.398;-63.798;2022-07-22T08:00:04;7.40;;;5.82;;
66702;SDS011;60933;46.398;-63.798;2022-07-22T08:02:33;7.90;;;6.13;;
66702;SDS011;60933;46.398;-63.798;2022-07-22T08:04:59;9.57;;;6.35;;
66702;SDS011;60933;46.398;-63.798;2022-07-22T08:07:26;8.63;;;7.10;;
66702;SDS011;60933;46.398;-63.798;2022-07-22T08:09:53;7.97;;;5.85;;
66702;SDS011;60933;46.398;-63.798;2022-07-22T08:12:19;8.73;;;6.68;;
66702;SDS011;60933;46.398;-63.798;2022-07-22T08:14:45;8.07;;;7.25;;
66702;SDS011;60933;46.398;-63.798;2022-07-22T08:17:11;7.38;;;5.50;;
66702;SDS011;60933;46.398;-63.798;2022-07-22T08:19:38;9.13;;;5.65;;
66702;SDS011;60933;46.398;-63.798;2022-07-22T08:22:04;7.00;;;5.28;;
66702;SDS011;60933;46.398;-63.798;2022-07-22T08:24:30;8.20;;;6.47;;
66702;SDS011;60933;46.398;-63.798;2022-07-22T08:26:56;7.88;;;5.55;;
66702;SDS011;60933;46.398;-63.798;2022-07-22T08:29:22;6.57;;;5.30;;
66702;SDS011;60933;46.398;-63.798;2022-07-22T08:31:49;8.57;;;5.60;;
66702;SDS011;60933;46.398;-63.798;2022-07-22T08:34:15;7.55;;;5.53;;
66702;SDS011;60933;46.398;-63.798;2022-07-22T08:36:41;7.30;;;5.43;;
66702;SDS011;60933;46.398;-63.798;2022-07-22T08:39:07;7.85;;;6.20;;
66702;SDS011;60933;46.398;-63.798;2022-07-22T08:41:33;7.22;;;5.55;;
66702;SDS011;60933;46.398;-63.798;2022-07-22T08:44:02;9.43;;;5.28;;
66702;SDS011;60933;46.398;-63.798;2022-07-22T08:46:29;6.55;;;5.00;;
66702;SDS011;60933;46.398;-63.798;2022-07-22T08:48:56;8.40;;;5.55;;
66702;SDS011;60933;46.398;-63.798;2022-07-22T08:51:23;7.63;;;5.13;;
66702;SDS011;60933;46.398;-63.798;2022-07-22T08:53:49;8.75;;;5.90;;
66702;SDS011;60933;46.398;-63.798;2022-07-22T08:56:15;8.52;;;5.32;;
66702;SDS011;60933;46.398;-63.798;2022-07-22T08:58:42;8.57;;;5.47;;
66702;SDS011;60933;46.398;-63.798;2022-07-22T09:01:09;9.32;;;5.25;;
66702;SDS011;60933;46.398;-63.798;2022-07-22T09:03:48;8.15;;;5.70;;
66702;SDS011;60933;46.398;-63.798;2022-07-22T09:06:19;9.23;;;5.43;;
66702;SDS011;60933;46.398;-63.798;2022-07-22T09:08:52;8.02;;;4.80;;
66702;SDS011;60933;46.398;-63.798;2022-07-22T09:11:20;6.35;;;5.25;;
66702;SDS011;60933;46.398;-63.798;2022-07-22T09:13:48;8.30;;;5.88;;
66702;SDS011;60933;46.398;-63.798;2022-07-22T09:16:14;6.85;;;5.13;;
66702;SDS011;60933;46.398;-63.798;2022-07-22T09:18:51;6.38;;;4.75;;
66702;SDS011;60933;46.398;-63.798;2022-07-22T09:23:45;7.45;;;4.63;;
66702;SDS011;60933;46.398;-63.798;2022-07-22T09:26:31;9.30;;;5.55;;
66702;SDS011;60933;46.398;-63.798;2022-07-22T09:29:01;6.38;;;4.90;;
66702;SDS011;60933;46.398;-63.798;2022-07-22T09:31:30;7.93;;;5.57;;
66702;SDS011;60933;46.398;-63.798;2022-07-22T09:34:02;8.73;;;5.22;;
66702;SDS011;60933;46.398;-63.798;2022-07-22T09:36:29;8.48;;;5.32;;
66702;SDS011;60933;46.398;-63.798;2022-07-22T09:38:56;7.18;;;4.70;;
66702;SDS011;60933;46.398;-63.798;2022-07-22T09:41:22;8.13;;;5.05;;
66702;SDS011;60933;46.398;-63.798;2022-07-22T09:43:49;8.52;;;5.18;;
66702;SDS011;60933;46.398;-63.798;2022-07-22T09:46:32;6.88;;;5.63;;
66702;SDS011;60933;46.398;-63.798;2022-07-22T09:49:00;7.10;;;5.03;;
66702;SDS011;60933;46.398;-63.798;2022-07-22T09:51:27;6.88;;;4.47;;
66702;SDS011;60933;46.398;-63.798;2022-07-22T09:53:53;6.53;;;5.13;;
66702;SDS011;60933;46.398;-63.798;2022-07-22T09:56:21;6.95;;;4.53;;
66702;SDS011;60933;46.398;-63.798;2022-07-22T09:58:59;7.70;;;5.22;;
66702;SDS011;60933;46.398;-63.798;2022-07-22T10:01:25;9.48;;;6.20;;
66702;SDS011;60933;46.398;-63.798;2022-07-22T10:03:51;6.95;;;5.20;;
66702;SDS011;60933;46.398;-63.798;2022-07-22T10:06:20;7.95;;;5.38;;
66702;SDS011;60933;46.398;-63.798;2022-07-22T10:08:46;8.15;;;5.57;;
66702;SDS011;60933;46.398;-63.798;2022-07-22T10:11:13;5.85;;;4.40;;
66702;SDS011;60933;46.398;-63.798;2022-07-22T10:17:25;7.78;;;4.72;;
66702;SDS011;60933;46.398;-63.798;2022-07-22T10:20:10;7.10;;;5.50;;
66702;SDS011;60933;46.398;-63.798;2022-07-22T10:27:12;7.75;;;5.18;;
66702;SDS011;60933;46.398;-63.798;2022-07-22T10:29:59;8.07;;;4.88;;
66702;SDS011;60933;46.398;-63.798;2022-07-22T10:32:36;5.43;;;4.20;;
66702;SDS011;60933;46.398;-63.798;2022-07-22T10:38:07;6.15;;;4.53;;
66702;SDS011;60933;46.398;-63.798;2022-07-22T10:40:28;7.35;;;4.90;;
66702;SDS011;60933;46.398;-63.798;2022-07-22T10:43:08;9.90;;;4.85;;
66702;SDS011;60933;46.398;-63.798;2022-07-22T10:49:10;7.03;;;4.30;;
66702;SDS011;60933;46.398;-63.798;2022-07-22T10:51:40;5.20;;;4.07;;
66702;SDS011;60933;46.398;-63.798;2022-07-22T10:55:16;6.90;;;4.80;;
66702;SDS011;60933;46.398;-63.798;2022-07-22T10:57:42;7.32;;;4.05;;
66702;SDS011;60933;46.398;-63.798;2022-07-22T11:00:08;5.82;;;5.13;;
66702;SDS011;60933;46.398;-63.798;2022-07-22T11:02:36;4.88;;;3.70;;
66702;SDS011;60933;46.398;-63.798;2022-07-22T11:05:13;8.80;;;4.80;;
66702;SDS011;60933;46.398;-63.798;2022-07-22T11:07:43;6.03;;;4.70;;
66702;SDS011;60933;46.398;-63.798;2022-07-22T11:13:36;5.03;;;3.92;;
66702;SDS011;60933;46.398;-63.798;2022-07-22T11:19:29;6.63;;;4.78;;
66702;SDS011;60933;46.398;-63.798;2022-07-22T11:25:09;5.40;;;4.07;;
66702;SDS011;60933;46.398;-63.798;2022-07-22T11:27:38;6.40;;;4.38;;
66702;SDS011;60933;46.398;-63.798;2022-07-22T11:30:27;5.18;;;4.40;;
66702;SDS011;60933;46.398;-63.798;2022-07-22T11:32:56;5.25;;;4.13;;
66702;SDS011;60933;46.398;-63.798;2022-07-22T11:35:25;7.80;;;4.45;;
66702;SDS011;60933;46.398;-63.798;2022-07-22T11:37:57;5.85;;;3.97;;
66702;SDS011;60933;46.398;-63.798;2022-07-22T11:40:31;6.40;;;5.70;;
66702;SDS011;60933;46.398;-63.798;2022-07-22T11:43:10;6.28;;;5.00;;
66702;SDS011;60933;46.398;-63.798;2022-07-22T11:45:56;6.03;;;3.78;;
66702;SDS011;60933;46.398;-63.798;2022-07-22T11:48:32;6.97;;;4.55;;
66702;SDS011;60933;46.398;-63.798;2022-07-22T11:54:04;6.45;;;4.60;;
66702;SDS011;60933;46.398;-63.798;2022-07-22T11:59:39;4.75;;;4.13;;
66702;SDS011;60933;46.398;-63.798;2022-07-22T12:02:05;5.15;;;4.10;;
66702;SDS011;60933;46.398;-63.798;2022-07-22T12:04:34;5.82;;;4.20;;
66702;SDS011;60933;46.398;-63.798;2022-07-22T12:07:01;4.82;;;4.13;;
66702;SDS011;60933;46.398;-63.798;2022-07-22T12:09:30;6.28;;;4.53;;
66702;SDS011;60933;46.398;-63.798;2022-07-22T12:14:27;6.80;;;4.47;;
66702;SDS011;60933;46.398;-63.798;2022-07-22T12:17:05;6.18;;;4.40;;
66702;SDS011;60933;46.398;-63.798;2022-07-22T12:19:34;4.78;;;3.85;;
66702;SDS011;60933;46.398;-63.798;2022-07-22T12:22:05;5.18;;;3.85;;
66702;SDS011;60933;46.398;-63.798;2022-07-22T12:24:35;4.65;;;3.92;;
66702;SDS011;60933;46.398;-63.798;2022-07-22T12:27:07;7.70;;;4.55;;
66702;SDS011;60933;46.398;-63.798;2022-07-22T12:32:05;4.55;;;3.72;;
66702;SDS011;60933;46.398;-63.798;2022-07-22T12:37:25;5.85;;;4.50;;
66702;SDS011;60933;46.398;-63.798;2022-07-22T12:40:03;4.78;;;3.88;;
66702;SDS011;60933;46.398;-63.798;2022-07-22T12:42:36;6.10;;;4.35;;
66702;SDS011;60933;46.398;-63.798;2022-07-22T12:45:06;4.53;;;3.95;;
66702;SDS011;60933;46.398;-63.798;2022-07-22T12:50:19;6.88;;;5.07;;
66702;SDS011;60933;46.398;-63.798;2022-07-22T12:52:47;5.00;;;3.85;;
66702;SDS011;60933;46.398;-63.798;2022-07-22T12:55:14;7.43;;;5.53;;
66702;SDS011;60933;46.398;-63.798;2022-07-22T12:57:41;5.15;;;3.65;;
66702;SDS011;60933;46.398;-63.798;2022-07-22T13:00:07;6.35;;;4.60;;
66702;SDS011;60933;46.398;-63.798;2022-07-22T13:02:34;5.88;;;4.10;;
66702;SDS011;60933;46.398;-63.798;2022-07-22T13:05:00;4.43;;;3.55;;
66702;SDS011;60933;46.398;-63.798;2022-07-22T13:07:26;6.53;;;3.90;;
66702;SDS011;60933;46.398;-63.798;2022-07-22T13:09:52;5.05;;;4.20;;
66702;SDS011;60933;46.398;-63.798;2022-07-22T13:12:18;6.70;;;4.35;;
66702;SDS011;60933;46.398;-63.798;2022-07-22T13:14:44;5.00;;;4.10;;
66702;SDS011;60933;46.398;-63.798;2022-07-22T13:17:10;5.68;;;4.05;;
66702;SDS011;60933;46.398;-63.798;2022-07-22T13:19:37;7.25;;;4.45;;
66702;SDS011;60933;46.398;-63.798;2022-07-22T13:22:03;6.07;;;4.55;;
66702;SDS011;60933;46.398;-63.798;2022-07-22T13:24:30;6.82;;;4.38;;
66702;SDS011;60933;46.398;-63.798;2022-07-22T13:26:56;5.70;;;4.35;;
66702;SDS011;60933;46.398;-63.798;2022-07-22T13:29:22;6.35;;;4.25;;
66702;SDS011;60933;46.398;-63.798;2022-07-22T13:31:48;6.80;;;4.40;;
66702;SDS011;60933;46.398;-63.798;2022-07-22T13:34:14;5.97;;;4.65;;
66702;SDS011;60933;46.398;-63.798;2022-07-22T13:36:40;6.95;;;4.45;;
66702;SDS011;60933;46.398;-63.798;2022-07-22T13:39:06;5.85;;;4.22;;
66702;SDS011;60933;46.398;-63.798;2022-07-22T13:41:32;7.50;;;5.35;;
66702;SDS011;60933;46.398;-63.798;2022-07-22T13:43:59;7.07;;;4.95;;
66702;SDS011;60933;46.398;-63.798;2022-07-22T13:46:25;6.85;;;4.68;;
66702;SDS011;60933;46.398;-63.798;2022-07-22T13:48:51;6.13;;;3.95;;
66702;SDS011;60933;46.398;-63.798;2022-07-22T13:51:18;4.60;;;3.78;;
66702;SDS011;60933;46.398;-63.798;2022-07-22T13:53:44;6.55;;;4.40;;
66702;SDS011;60933;46.398;-63.798;2022-07-22T13:56:10;6.63;;;4.10;;
66702;SDS011;60933;46.398;-63.798;2022-07-22T13:58:37;7.18;;;6.03;;
66702;SDS011;60933;46.398;-63.798;2022-07-22T14:01:06;4.93;;;3.72;;
66702;SDS011;60933;46.398;-63.798;2022-07-22T14:03:34;5.43;;;3.85;;
66702;SDS011;60933;46.398;-63.798;2022-07-22T14:06:00;5.20;;;4.28;;
66702;SDS011;60933;46.398;-63.798;2022-07-22T14:08:26;7.32;;;4.75;;
66702;SDS011;60933;46.398;-63.798;2022-07-22T14:10:52;6.18;;;4.43;;
66702;SDS011;60933;46.398;-63.798;2022-07-22T14:13:18;9.15;;;4.60;;
66702;SDS011;60933;46.398;-63.798;2022-07-22T14:15:44;6.40;;;4.20;;
66702;SDS011;60933;46.398;-63.798;2022-07-22T14:18:10;7.78;;;5.05;;
66702;SDS011;60933;46.398;-63.798;2022-07-22T14:20:36;8.88;;;4.65;;
66702;SDS011;60933;46.398;-63.798;2022-07-22T14:23:03;7.80;;;4.47;;
66702;SDS011;60933;46.398;-63.798;2022-07-22T14:25:30;6.38;;;4.22;;
66702;SDS011;60933;46.398;-63.798;2022-07-22T14:27:57;5.28;;;4.30;;
66702;SDS011;60933;46.398;-63.798;2022-07-22T14:30:23;6.88;;;4.00;;
66702;SDS011;60933;46.398;-63.798;2022-07-22T14:32:50;5.15;;;3.53;;
66702;SDS011;60933;46.398;-63.798;2022-07-22T14:35:16;5.47;;;3.53;;
66702;SDS011;60933;46.398;-63.798;2022-07-22T14:37:42;7.10;;;4.05;;
66702;SDS011;60933;46.398;-63.798;2022-07-22T14:40:08;4.97;;;3.50;;
66702;SDS011;60933;46.398;-63.798;2022-07-22T14:42:35;4.85;;;3.55;;
66702;SDS011;60933;46.398;-63.798;2022-07-22T14:45:01;7.57;;;4.00;;
66702;SDS011;60933;46.398;-63.798;2022-07-22T14:47:29;4.70;;;3.80;;
66702;SDS011;60933;46.398;-63.798;2022-07-22T14:49:55;4.03;;;3.33;;
66702;SDS011;60933;46.398;-63.798;2022-07-22T14:52:21;7.00;;;3.50;;
66702;SDS011;60933;46.398;-63.798;2022-07-22T14:54:47;4.25;;;3.60;;
66702;SDS011;60933;46.398;-63.798;2022-07-22T14:57:13;4.63;;;3.40;;
66702;SDS011;60933;46.398;-63.798;2022-07-22T14:59:39;4.43;;;3.22;;
66702;SDS011;60933;46.398;-63.798;2022-07-22T15:02:06;3.70;;;2.95;;
66702;SDS011;60933;46.398;-63.798;2022-07-22T15:04:32;3.95;;;2.92;;
66702;SDS011;60933;46.398;-63.798;2022-07-22T15:06:58;4.28;;;3.10;;